Time;durP1;ratioP1;P1;durP2;ratioP2;P2;SDS_P1;SDS_P2;PMS_P1;PMS_P2;Temp;Humidity;BMP_temperature;BMP_pressure;BME280_temperature;BME280_humidity;BME280_pressure;Samples;Min_cycle;Max_cycle;Signal;HPM_P1;HPM_P2
2023/06/09 00:00:17;;;;;;;10.57;7.72;;;;;;;16.36;100.00;98136.56;2608243;28;20044;-90
2023/06/09 00:01:53;;;;;;;15.43;8.18;;;;;;;16.31;100.00;98139.47;2608455;28;20071;-91
2023/06/09 00:03:09;;;;;;;9.02;7.50;;;;;;;16.18;100.00;98139.28;2609674;28;20107;-91
2023/06/09 00:04:26;;;;;;;9.23;7.80;;;;;;;16.31;100.00;98136.81;2608444;28;20768;-90
2023/06/09 00:05:42;;;;;;;9.55;7.78;;;;;;;16.33;100.00;98139.34;2609856;28;20041;-90
2023/06/09 00:06:58;;;;;;;9.95;7.43;;;;;;;16.05;100.00;98130.34;2608409;28;20123;-90
2023/06/09 00:08:14;;;;;;;8.43;7.38;;;;;;;16.30;100.00;98136.91;2609651;28;20049;-90
2023/06/09 00:09:30;;;;;;;11.13;7.90;;;;;;;16.23;100.00;98134.63;2608821;28;20076;-90
2023/06/09 00:10:46;;;;;;;9.05;7.65;;;;;;;16.13;100.00;98135.19;2606443;28;20131;-90
2023/06/09 00:12:02;;;;;;;10.13;7.75;;;;;;;16.08;100.00;98132.84;2599493;28;20059;-93
2023/06/09 00:13:17;;;;;;;9.80;8.02;;;;;;;16.11;100.00;98130.00;2609535;28;20053;-91
2023/06/09 00:14:33;;;;;;;10.02;8.02;;;;;;;16.06;100.00;98138.19;2608830;28;20087;-90
2023/06/09 00:15:49;;;;;;;9.48;7.93;;;;;;;16.12;100.00;98133.50;2609951;28;20044;-91
2023/06/09 00:17:08;;;;;;;12.05;8.50;;;;;;;16.12;100.00;98131.72;2608590;28;20049;-91
2023/06/09 00:18:24;;;;;;;9.60;7.80;;;;;;;16.07;100.00;98131.13;2609988;28;20069;-91
2023/06/09 00:19:42;;;;;;;9.50;7.68;;;;;;;16.03;100.00;98137.50;2608348;28;20489;-90
2023/06/09 00:20:59;;;;;;;10.23;8.20;;;;;;;16.08;100.00;98130.19;2609664;28;20045;-91
2023/06/09 00:22:15;;;;;;;11.73;7.75;;;;;;;16.16;100.00;98135.03;2608214;28;20049;-93
2023/06/09 00:23:30;;;;;;;8.73;7.82;;;;;;;16.16;100.00;98133.25;2609661;28;20049;-92
2023/06/09 00:24:46;;;;;;;12.73;7.95;;;;;;;16.21;100.00;98128.56;2609100;28;20045;-91
2023/06/09 00:26:02;;;;;;;9.52;7.70;;;;;;;16.17;100.00;98132.31;2609764;28;20140;-91
2023/06/09 00:27:18;;;;;;;8.43;7.40;;;;;;;16.21;100.00;98133.84;2608675;28;20056;-91
2023/06/09 00:28:33;;;;;;;10.20;7.45;;;;;;;16.24;100.00;98131.03;2609267;28;20056;-91
2023/06/09 00:29:48;;;;;;;11.98;7.50;;;;;;;15.90;100.00;98132.88;2608440;28;20110;-92
2023/06/09 00:31:04;;;;;;;9.05;7.53;;;;;;;15.84;100.00;98127.94;2608370;28;20065;-92
2023/06/09 00:32:20;;;;;;;13.13;7.90;;;;;;;16.08;100.00;98136.31;2609520;28;20076;-92
2023/06/09 00:33:35;;;;;;;13.38;8.70;;;;;;;16.17;100.00;98134.94;2608431;28;20052;-91
2023/06/09 00:34:51;;;;;;;9.75;7.95;;;;;;;16.13;100.00;98127.28;2609587;28;20059;-92
2023/06/09 00:36:07;;;;;;;14.43;7.95;;;;;;;16.19;100.00;98133.06;2605135;28;20057;-92
2023/06/09 00:37:23;;;;;;;9.75;7.88;;;;;;;16.19;100.00;98127.78;2609170;28;20049;-92
2023/06/09 00:38:38;;;;;;;9.77;7.47;;;;;;;16.21;100.00;98127.69;2608911;28;20504;-91
2023/06/09 00:39:55;;;;;;;9.40;7.43;;;;;;;16.26;100.00;98123.00;2609870;28;20063;-92
2023/06/09 00:41:10;;;;;;;9.90;7.90;;;;;;;16.29;100.00;98129.91;2608376;28;20045;-91
2023/06/09 00:42:26;;;;;;;10.27;8.13;;;;;;;16.29;100.00;98127.28;2609207;28;20053;-92
2023/06/09 00:43:46;;;;;;;9.13;8.13;;;;;;;16.27;100.00;98126.50;2608591;28;20085;-92
2023/06/09 00:45:03;;;;;;;11.00;7.78;;;;;;;16.23;100.00;98121.41;2609061;28;20503;-93
2023/06/09 00:46:19;;;;;;;13.23;8.05;;;;;;;16.26;100.00;98124.81;2608462;28;20063;-91
2023/06/09 00:47:35;;;;;;;11.65;8.05;;;;;;;16.18;100.00;98114.69;2609496;28;20550;-92
2023/06/09 00:48:50;;;;;;;13.10;8.10;;;;;;;16.33;100.00;98116.44;2608679;28;20677;-92
2023/06/09 00:50:07;;;;;;;9.93;8.00;;;;;;;16.43;100.00;98116.75;2608922;28;20179;-92
2023/06/09 00:51:23;;;;;;;10.35;7.50;;;;;;;16.31;100.00;98115.69;2607521;28;20131;-92
2023/06/09 00:52:40;;;;;;;10.50;7.90;;;;;;;16.44;100.00;98112.34;2609597;28;20052;-92
2023/06/09 00:53:56;;;;;;;8.52;7.38;;;;;;;16.41;100.00;98121.28;2607901;28;20140;-91
2023/06/09 00:55:12;;;;;;;9.18;7.97;;;;;;;16.45;100.00;98111.41;2609493;28;20076;-92
2023/06/09 00:56:30;;;;;;;8.00;7.20;;;;;;;16.34;100.00;98112.88;2608463;28;20037;-91
2023/06/09 00:57:47;;;;;;;11.48;7.90;;;;;;;16.40;100.00;98113.44;2609141;28;20501;-89
2023/06/09 00:59:04;;;;;;;10.15;7.60;;;;;;;16.23;100.00;98110.84;2608654;28;20103;-89
2023/06/09 01:00:24;;;;;;;8.13;7.32;;;;;;;16.28;100.00;98115.88;2609570;28;20556;-92
2023/06/09 01:01:40;;;;;;;11.50;8.27;;;;;;;16.42;100.00;98115.06;2608661;28;20114;-90
2023/06/09 01:03:00;;;;;;;8.52;7.60;;;;;;;16.46;100.00;98108.66;2609272;28;20057;-90
2023/06/09 01:04:16;;;;;;;8.45;7.47;;;;;;;16.45;100.00;98108.75;2608420;28;20059;-90
2023/06/09 01:05:38;;;;;;;11.77;7.95;;;;;;;16.44;100.00;98109.72;2609442;28;20037;-90
2023/06/09 01:07:07;;;;;;;9.35;7.28;;;;;;;16.34;100.00;98110.22;2607222;28;20187;-90
2023/06/09 01:08:34;;;;;;;9.75;7.57;;;;;;;16.36;100.00;98116.25;2608683;28;20052;-91
2023/06/09 01:10:13;;;;;;;10.73;7.70;;;;;;;16.35;100.00;98113.72;2608310;28;20072;-92
2023/06/09 01:11:38;;;;;;;9.05;7.90;;;;;;;16.44;100.00;98115.00;2609293;28;20588;-90
2023/06/09 01:13:10;;;;;;;15.27;7.88;;;;;;;16.16;100.00;98119.19;2608838;28;20091;-91
2023/06/09 01:14:46;;;;;;;9.52;8.10;;;;;;;16.21;100.00;98120.66;2609691;28;20067;-90
2023/06/09 01:16:17;;;;;;;8.82;7.75;;;;;;;16.38;100.00;98108.25;2609501;28;20504;-91
2023/06/09 01:17:36;;;;;;;12.05;7.80;;;;;;;16.17;100.00;98119.09;2608323;28;20128;-91
2023/06/09 01:18:53;;;;;;;8.65;7.53;;;;;;;16.27;100.00;98118.59;2609030;28;20059;-93
2023/06/09 01:20:12;;;;;;;9.40;7.55;;;;;;;16.29;100.00;98117.56;2608355;28;20080;-92
2023/06/09 01:21:42;;;;;;;9.38;7.85;;;;;;;16.29;100.00;98120.22;2609124;28;20069;-91
2023/06/09 01:23:06;;;;;;;9.23;8.20;;;;;;;16.29;100.00;98119.34;2608137;28;20063;-91
2023/06/09 01:24:39;;;;;;;10.73;8.55;;;;;;;16.31;100.00;98122.75;2609264;28;20052;-90
2023/06/09 01:25:56;;;;;;;10.57;7.70;;;;;;;16.32;100.00;98127.09;2608369;28;20081;-91
2023/06/09 01:27:14;;;;;;;12.80;8.15;;;;;;;16.27;100.00;98123.88;2609553;28;20045;-91
2023/06/09 01:28:33;;;;;;;9.43;8.10;;;;;;;16.30;100.00;98123.69;2608721;28;20091;-93
2023/06/09 01:29:52;;;;;;;12.15;8.68;;;;;;;16.26;100.00;98117.72;2609459;28;20076;-90
2023/06/09 01:31:11;;;;;;;11.82;8.40;;;;;;;16.19;100.00;98119.03;2608413;28;20063;-90
2023/06/09 01:32:27;;;;;;;10.32;8.63;;;;;;;16.12;100.00;98117.66;2609148;28;20094;-90
2023/06/09 01:33:44;;;;;;;9.02;7.70;;;;;;;16.18;100.00;98115.50;2595181;28;20053;-90
2023/06/09 01:35:01;;;;;;;11.00;7.90;;;;;;;16.10;100.00;98120.38;2599445;28;20355;-90
2023/06/09 01:36:16;;;;;;;11.00;8.35;;;;;;;16.13;100.00;98117.56;2608059;28;20051;-90
2023/06/09 01:37:32;;;;;;;12.23;8.63;;;;;;;15.95;100.00;98120.31;2609260;28;20099;-91
2023/06/09 01:38:48;;;;;;;11.63;8.27;;;;;;;16.10;100.00;98118.59;2608547;28;20049;-90
2023/06/09 01:40:05;;;;;;;8.90;8.00;;;;;;;15.99;100.00;98120.13;2609289;28;20227;-90
2023/06/09 01:41:21;;;;;;;9.00;8.02;;;;;;;16.16;100.00;98114.75;2606317;28;20049;-91
2023/06/09 01:42:37;;;;;;;10.40;8.85;;;;;;;15.89;100.00;98117.13;2608840;28;20488;-91
2023/06/09 01:43:52;;;;;;;10.77;8.10;;;;;;;16.10;100.00;98113.31;2608405;28;20052;-90
2023/06/09 01:45:09;;;;;;;10.52;8.05;;;;;;;16.09;100.00;98111.59;2609527;28;20517;-90
2023/06/09 01:46:25;;;;;;;11.07;7.90;;;;;;;16.12;100.00;98109.72;2607669;28;20127;-92
2023/06/09 01:47:40;;;;;;;9.40;8.23;;;;;;;16.03;100.00;98109.31;2608808;28;20063;-92
2023/06/09 01:49:09;;;;;;;10.38;8.50;;;;;;;15.93;100.00;98108.13;2607723;28;20052;-91
2023/06/09 01:50:36;;;;;;;10.30;8.23;;;;;;;16.07;100.00;98110.00;2609509;28;20087;-92
2023/06/09 01:52:36;;;;;;;10.40;8.63;;;;;;;16.04;100.00;98104.88;2608169;28;20619;-91
2023/06/09 01:54:01;;;;;;;10.20;8.07;;;;;;;16.01;100.00;98105.06;2609454;28;20049;-90
2023/06/09 01:55:23;;;;;;;10.43;8.55;;;;;;;15.80;100.00;98102.66;2608023;28;20413;-90
2023/06/09 01:56:43;;;;;;;11.50;8.73;;;;;;;15.86;100.00;98102.28;2607587;28;20045;-90
2023/06/09 01:58:09;;;;;;;11.05;8.25;;;;;;;15.94;100.00;98092.22;2607724;28;20059;-91
2023/06/09 01:59:33;;;;;;;9.45;7.93;;;;;;;15.90;100.00;98098.56;2607251;28;20049;-90
2023/06/09 02:00:49;;;;;;;10.85;8.35;;;;;;;16.06;100.00;98110.91;2608915;28;20087;-91
2023/06/09 02:02:08;;;;;;;11.25;8.43;;;;;;;15.99;100.00;98099.00;2607826;28;20044;-90
2023/06/09 02:03:27;;;;;;;9.93;7.95;;;;;;;15.89;100.00;98104.78;2609443;28;20076;-91
2023/06/09 02:04:44;;;;;;;14.73;8.50;;;;;;;15.88;100.00;98099.59;2609211;28;20140;-91
2023/06/09 02:06:01;;;;;;;8.70;7.80;;;;;;;15.89;100.00;98098.66;2611352;28;20202;-90
2023/06/09 02:07:17;;;;;;;10.45;8.30;;;;;;;15.97;100.00;98103.53;2610380;28;20216;-92
2023/06/09 02:08:33;;;;;;;11.23;8.18;;;;;;;16.04;100.00;98102.22;2610590;28;20060;-91
2023/06/09 02:09:49;;;;;;;14.77;8.45;;;;;;;15.98;100.00;98103.41;2610523;28;20166;-92
2023/06/09 02:11:05;;;;;;;14.00;8.23;;;;;;;15.87;100.00;98093.44;2608420;28;20484;-91
2023/06/09 02:12:21;;;;;;;9.45;8.45;;;;;;;15.86;100.00;98094.38;2607267;28;20041;-91
2023/06/09 02:13:37;;;;;;;10.10;8.00;;;;;;;15.92;100.00;98091.44;2610109;28;20072;-90
2023/06/09 02:14:53;;;;;;;8.98;8.05;;;;;;;15.92;100.00;98095.84;2610691;28;20053;-91
2023/06/09 02:16:08;;;;;;;11.95;8.63;;;;;;;15.86;100.00;98093.53;2609952;28;20512;-90
2023/06/09 02:17:24;;;;;;;9.63;7.88;;;;;;;15.63;100.00;98091.19;2610900;28;20056;-89
2023/06/09 02:18:40;;;;;;;8.60;7.70;;;;;;;15.74;100.00;98097.69;2609349;28;20492;-90
2023/06/09 02:19:56;;;;;;;8.77;7.88;;;;;;;15.78;100.00;98096.56;2610763;28;20045;-91
2023/06/09 02:21:11;;;;;;;9.75;7.65;;;;;;;15.78;100.00;98096.56;2609906;28;20049;-90
2023/06/09 02:22:27;;;;;;;10.05;8.38;;;;;;;15.73;100.00;98095.97;2610755;28;20049;-90
2023/06/09 02:23:42;;;;;;;10.55;8.68;;;;;;;15.51;100.00;98095.38;2609996;28;20063;-90
2023/06/09 02:24:58;;;;;;;10.85;7.75;;;;;;;15.65;100.00;98094.63;2610715;28;20055;-91
2023/06/09 02:26:13;;;;;;;9.45;8.45;;;;;;;15.60;100.00;98098.44;2609972;28;20048;-90
2023/06/09 02:27:29;;;;;;;10.65;8.13;;;;;;;15.53;100.00;98098.78;2610345;28;20049;-90
2023/06/09 02:28:45;;;;;;;10.15;8.50;;;;;;;15.56;100.00;98092.47;2609994;28;20053;-91
2023/06/09 02:30:00;;;;;;;9.82;7.75;;;;;;;15.68;100.00;98088.31;2610989;28;20742;-91
2023/06/09 02:31:16;;;;;;;8.50;7.63;;;;;;;15.64;100.00;98084.97;2609809;28;20144;-91
2023/06/09 02:32:32;;;;;;;11.63;7.97;;;;;;;15.61;100.00;98086.97;2611185;28;20049;-90
2023/06/09 02:33:47;;;;;;;10.70;7.95;;;;;;;15.53;100.00;98082.94;2609706;28;20041;-90
2023/06/09 02:35:04;;;;;;;9.38;8.38;;;;;;;15.41;100.00;98080.97;2610908;28;20056;-90
2023/06/09 02:36:19;;;;;;;11.50;8.32;;;;;;;15.46;100.00;98083.34;2609383;28;20606;-91
2023/06/09 02:37:35;;;;;;;11.02;8.18;;;;;;;15.40;100.00;98087.16;2610615;28;20057;-90
2023/06/09 02:38:50;;;;;;;9.65;7.88;;;;;;;15.27;100.00;98086.13;2609874;28;20430;-90
2023/06/09 02:40:08;;;;;;;10.95;8.52;;;;;;;15.30;100.00;98081.53;2610206;28;20052;-90
2023/06/09 02:41:23;;;;;;;11.13;8.50;;;;;;;15.32;100.00;98081.47;2610129;28;20554;-91
2023/06/09 02:42:39;;;;;;;12.88;7.82;;;;;;;15.26;100.00;98080.00;2609830;28;20489;-90
2023/06/09 02:43:55;;;;;;;11.95;8.05;;;;;;;15.21;100.00;98080.25;2610356;28;20489;-90
2023/06/09 02:45:10;;;;;;;9.75;8.07;;;;;;;15.17;100.00;98085.75;2609943;28;20049;-90
2023/06/09 02:46:26;;;;;;;10.07;8.02;;;;;;;15.09;100.00;98088.81;2609835;28;20119;-90
2023/06/09 02:47:41;;;;;;;11.27;8.70;;;;;;;15.07;100.00;98080.97;2609327;28;20117;-90
2023/06/09 02:48:57;;;;;;;11.82;9.07;;;;;;;15.04;100.00;98081.13;2610805;28;20045;-90
2023/06/09 02:50:13;;;;;;;11.13;8.88;;;;;;;14.96;100.00;98078.06;2609483;28;20049;-90
2023/06/09 02:51:28;;;;;;;12.82;8.57;;;;;;;15.02;100.00;98083.00;2610784;28;20068;-89
2023/06/09 02:52:44;;;;;;;11.38;8.38;;;;;;;14.94;100.00;98087.78;2609773;28;20123;-90
2023/06/09 02:54:00;;;;;;;13.02;8.20;;;;;;;15.09;100.00;98086.16;2610307;28;20420;-90
2023/06/09 02:55:18;;;;;;;10.77;8.50;;;;;;;14.97;100.00;98080.59;2608232;28;20140;-90
2023/06/09 02:56:34;;;;;;;11.93;8.23;;;;;;;14.91;100.00;98085.31;2609622;28;20480;-90
2023/06/09 02:57:50;;;;;;;10.20;8.35;;;;;;;14.97;100.00;98088.50;2609831;28;20072;-90
2023/06/09 02:59:07;;;;;;;9.32;7.97;;;;;;;14.84;100.00;98084.78;2610863;28;20508;-90
2023/06/09 03:00:23;;;;;;;9.07;8.18;;;;;;;14.93;100.00;98086.09;2609059;28;20065;-90
2023/06/09 03:01:39;;;;;;;11.52;9.38;;;;;;;15.06;100.00;98083.69;2610877;28;20049;-90
2023/06/09 03:02:56;;;;;;;13.65;8.38;;;;;;;15.05;100.00;98085.47;2609203;28;20090;-90
2023/06/09 03:04:12;;;;;;;8.65;7.75;;;;;;;15.07;100.00;98091.50;2610533;28;20044;-90
2023/06/09 03:05:27;;;;;;;10.13;7.78;;;;;;;15.11;100.00;98087.78;2609146;28;20048;-89
2023/06/09 03:06:43;;;;;;;11.15;8.57;;;;;;;15.10;100.00;98093.13;2610570;28;20068;-91
2023/06/09 03:07:59;;;;;;;9.77;7.70;;;;;;;15.15;100.00;98082.34;2606886;28;20053;-91
2023/06/09 03:09:15;;;;;;;11.45;8.80;;;;;;;15.20;100.00;98091.72;2607835;28;20090;-92
2023/06/09 03:10:31;;;;;;;11.27;8.50;;;;;;;15.21;100.00;98087.28;2609685;28;20103;-91
2023/06/09 03:11:46;;;;;;;9.77;8.75;;;;;;;15.25;100.00;98089.69;2610647;28;20476;-90
2023/06/09 03:13:02;;;;;;;10.23;8.75;;;;;;;15.28;100.00;98088.69;2609060;28;20056;-91
2023/06/09 03:14:18;;;;;;;9.98;8.80;;;;;;;15.16;100.00;98084.91;2609518;28;20059;-90
2023/06/09 03:15:33;;;;;;;12.65;8.88;;;;;;;15.24;100.00;98088.00;2609090;28;20568;-90
2023/06/09 03:16:49;;;;;;;10.63;9.05;;;;;;;15.33;100.00;98085.81;2607918;28;20052;-91
2023/06/09 03:18:05;;;;;;;11.50;10.30;;;;;;;15.29;100.00;98090.38;2610513;28;20056;-91
2023/06/09 03:19:20;;;;;;;10.98;8.88;;;;;;;15.41;100.00;98083.59;2609071;28;20055;-90
2023/06/09 03:20:36;;;;;;;10.57;9.18;;;;;;;15.28;100.00;98087.81;2610825;28;20056;-91
2023/06/09 03:21:52;;;;;;;11.48;9.07;;;;;;;15.25;100.00;98084.41;2609373;28;20552;-91
2023/06/09 03:23:08;;;;;;;14.23;9.32;;;;;;;15.43;100.00;98088.81;2610451;28;20048;-91
2023/06/09 03:24:25;;;;;;;11.75;9.27;;;;;;;15.60;100.00;98086.09;2608764;28;20045;-90
2023/06/09 03:25:40;;;;;;;12.30;9.50;;;;;;;15.58;100.00;98085.34;2609523;28;20049;-91
2023/06/09 03:26:56;;;;;;;13.00;9.88;;;;;;;15.58;100.00;98079.22;2609347;28;20048;-90
2023/06/09 03:28:12;;;;;;;13.82;9.20;;;;;;;15.58;100.00;98089.78;2609905;28;20052;-91
2023/06/09 03:29:28;;;;;;;11.82;9.43;;;;;;;15.60;100.00;98090.53;2609255;28;20087;-90
2023/06/09 03:30:46;;;;;;;12.43;9.13;;;;;;;15.44;100.00;98079.94;2609006;28;20073;-91
2023/06/09 03:32:01;;;;;;;14.38;9.82;;;;;;;15.55;100.00;98082.88;2608399;28;20045;-90
2023/06/09 03:33:18;;;;;;;15.35;9.48;;;;;;;15.42;100.00;98079.19;2610310;28;20044;-91
2023/06/09 03:34:34;;;;;;;11.05;9.48;;;;;;;15.21;100.00;98089.94;2609133;28;20077;-90
2023/06/09 03:35:49;;;;;;;12.60;9.65;;;;;;;15.34;100.00;98083.06;2610210;28;20481;-92
2023/06/09 03:37:09;;;;;;;14.75;9.93;;;;;;;15.30;100.00;98086.81;2609114;28;20143;-92
2023/06/09 03:38:24;;;;;;;14.40;9.75;;;;;;;15.25;100.00;98083.59;2610104;28;20091;-91
2023/06/09 03:39:40;;;;;;;11.75;9.32;;;;;;;15.34;100.00;98090.97;2609378;28;20123;-90
2023/06/09 03:40:56;;;;;;;12.98;9.45;;;;;;;15.39;100.00;98085.47;2610046;28;20059;-91
2023/06/09 03:42:11;;;;;;;12.55;9.30;;;;;;;15.21;100.00;98082.88;2609069;28;20049;-90
2023/06/09 03:43:28;;;;;;;10.85;9.68;;;;;;;15.28;100.00;98082.53;2610348;28;20059;-90
2023/06/09 03:44:44;;;;;;;12.63;9.13;;;;;;;15.30;100.00;98086.81;2609202;28;20114;-88
2023/06/09 03:46:00;;;;;;;13.98;9.20;;;;;;;15.39;100.00;98086.34;2609923;28;20044;-89
2023/06/09 03:47:16;;;;;;;11.40;8.73;;;;;;;15.45;100.00;98081.66;2609295;28;20056;-88
2023/06/09 03:48:32;;;;;;;14.20;9.05;;;;;;;15.26;100.00;98093.19;2609916;28;20476;-88
2023/06/09 03:49:47;;;;;;;12.25;9.43;;;;;;;15.27;100.00;98092.25;2609872;28;20055;-88
2023/06/09 03:51:03;;;;;;;13.20;10.20;;;;;;;15.39;100.00;98083.69;2608970;28;20110;-88
2023/06/09 03:52:21;;;;;;;12.10;8.73;;;;;;;15.24;100.00;98085.34;2609723;28;20095;-88
2023/06/09 03:53:38;;;;;;;11.02;9.15;;;;;;;15.39;100.00;98091.59;2608286;28;20064;-89
2023/06/09 03:54:54;;;;;;;11.93;9.18;;;;;;;15.47;100.00;98087.69;2609852;28;20504;-89
2023/06/09 03:56:09;;;;;;;12.30;8.98;;;;;;;15.27;100.00;98089.63;2609046;28;20060;-88
2023/06/09 03:57:25;;;;;;;10.27;9.20;;;;;;;15.42;100.00;98095.00;2609608;28;20052;-89
2023/06/09 03:58:41;;;;;;;10.85;9.40;;;;;;;15.45;100.00;98094.84;2609097;28;20052;-89
2023/06/09 03:59:56;;;;;;;12.23;8.32;;;;;;;15.54;100.00;98094.34;2609778;28;20059;-90
2023/06/09 04:01:12;;;;;;;10.57;8.73;;;;;;;15.58;100.00;98097.69;2605504;28;20048;-89
2023/06/09 04:02:28;;;;;;;11.13;8.68;;;;;;;15.48;100.00;98103.44;2609224;28;20463;-89
2023/06/09 04:03:43;;;;;;;10.40;9.18;;;;;;;15.46;100.00;98102.69;2608140;28;20098;-88
2023/06/09 04:04:59;;;;;;;9.68;8.30;;;;;;;15.59;100.00;98094.94;2608866;28;20045;-89
2023/06/09 04:06:15;;;;;;;10.95;8.95;;;;;;;15.51;100.00;98095.38;2608346;28;20107;-89
2023/06/09 04:07:30;;;;;;;13.40;9.20;;;;;;;15.51;100.00;98100.63;2609678;28;20045;-89
2023/06/09 04:08:46;;;;;;;13.07;9.80;;;;;;;15.55;100.00;98096.06;2607075;28;20049;-89
2023/06/09 04:10:02;;;;;;;12.93;9.40;;;;;;;15.52;100.00;98099.69;2609726;28;20071;-89
2023/06/09 04:11:18;;;;;;;11.50;8.98;;;;;;;15.40;100.00;98095.09;2608738;28;20208;-89
2023/06/09 04:12:33;;;;;;;11.48;8.90;;;;;;;15.49;100.00;98094.59;2609498;28;20053;-89
2023/06/09 04:13:49;;;;;;;9.73;8.38;;;;;;;15.37;100.00;98097.88;2609032;28;20556;-89
2023/06/09 04:15:06;;;;;;;11.65;9.38;;;;;;;15.66;100.00;98101.63;2609595;28;20056;-89
2023/06/09 04:16:22;;;;;;;11.93;9.82;;;;;;;15.81;100.00;98096.44;2608610;28;20049;-89
2023/06/09 04:17:40;;;;;;;14.07;9.18;;;;;;;15.78;100.00;98092.16;2609654;28;20053;-90
2023/06/09 04:18:55;;;;;;;12.43;9.43;;;;;;;15.69;100.00;98095.28;2609006;28;20060;-90
2023/06/09 04:20:12;;;;;;;11.60;9.45;;;;;;;15.75;100.00;98094.97;2608943;28;20244;-89
2023/06/09 04:21:27;;;;;;;12.65;9.68;;;;;;;15.73;100.00;98098.63;2608757;28;20092;-90
2023/06/09 04:22:47;;;;;;;13.13;10.00;;;;;;;15.81;100.00;98101.72;2608545;28;20052;-90
2023/06/09 04:24:03;;;;;;;11.60;9.65;;;;;;;15.66;100.00;98100.75;2608817;28;20045;-89
2023/06/09 04:25:25;;;;;;;12.52;9.60;;;;;;;15.58;100.00;98100.31;2608507;28;20443;-90
2023/06/09 04:26:41;;;;;;;11.70;9.57;;;;;;;15.61;100.00;98100.16;2608778;28;20048;-90
2023/06/09 04:27:58;;;;;;;11.90;9.93;;;;;;;15.57;100.00;98091.53;2609035;28;20056;-90
2023/06/09 04:29:15;;;;;;;12.05;9.45;;;;;;;15.62;100.00;98093.94;2608305;28;20385;-88
2023/06/09 04:30:34;;;;;;;12.23;9.05;;;;;;;15.81;100.00;98096.44;2607062;28;20049;-90
2023/06/09 04:31:53;;;;;;;12.50;9.63;;;;;;;15.81;100.00;98104.34;2603974;28;20563;-89
2023/06/09 04:33:09;;;;;;;11.20;8.98;;;;;;;15.58;100.00;98095.88;2606787;28;20552;-88
2023/06/09 04:34:27;;;;;;;13.40;9.77;;;;;;;15.79;100.00;98093.03;2605827;28;20045;-88
2023/06/09 04:35:43;;;;;;;12.90;9.52;;;;;;;16.03;100.00;98103.16;2607616;28;20486;-89
2023/06/09 04:36:59;;;;;;;12.57;9.60;;;;;;;15.84;100.00;98095.38;2607520;28;20056;-89
2023/06/09 04:38:16;;;;;;;12.93;9.45;;;;;;;15.74;100.00;98092.41;2606631;28;20040;-88
2023/06/09 04:39:32;;;;;;;11.90;8.80;;;;;;;15.79;100.00;98101.78;2605706;28;20045;-88
2023/06/09 04:40:48;;;;;;;9.75;8.73;;;;;;;16.05;100.00;98104.81;2605264;28;20053;-88
2023/06/09 04:42:04;;;;;;;11.25;8.88;;;;;;;16.15;100.00;98099.00;2607165;28;20079;-90
2023/06/09 04:43:20;;;;;;;11.27;9.02;;;;;;;16.23;100.00;98102.06;2607358;28;20082;-88
2023/06/09 04:44:36;;;;;;;11.05;9.15;;;;;;;16.26;100.00;98101.03;2605138;28;20521;-89
2023/06/09 04:45:55;;;;;;;10.35;9.25;;;;;;;16.14;100.00;98102.59;2603988;28;20045;-91
2023/06/09 04:47:10;;;;;;;12.15;9.02;;;;;;;16.30;100.00;98103.41;2603785;28;20485;-89
2023/06/09 04:48:29;;;;;;;11.60;9.35;;;;;;;16.22;100.00;98101.22;2607313;28;20049;-88
2023/06/09 04:49:46;;;;;;;13.23;8.70;;;;;;;16.15;100.00;98101.66;2607162;28;20045;-88
2023/06/09 04:51:02;;;;;;;12.10;8.93;;;;;;;16.19;100.00;98106.66;2603843;28;20045;-91
2023/06/09 04:52:19;;;;;;;10.73;9.13;;;;;;;16.35;100.00;98100.53;2608236;28;20431;-89
2023/06/09 04:53:35;;;;;;;12.70;8.60;;;;;;;16.46;100.00;98103.38;2606790;28;20045;-87
2023/06/09 04:54:52;;;;;;;12.38;8.80;;;;;;;16.34;100.00;98099.66;2607625;28;20421;-85
2023/06/09 04:56:08;;;;;;;10.68;8.68;;;;;;;16.50;100.00;98104.06;2608194;28;20048;-84
2023/06/09 04:57:28;;;;;;;11.50;9.75;;;;;;;16.56;100.00;98095.78;2607996;28;20052;-84
2023/06/09 04:58:44;;;;;;;10.75;9.30;;;;;;;16.41;100.00;98097.50;2606830;28;20119;-86
2023/06/09 05:00:15;;;;;;;10.48;9.27;;;;;;;16.67;100.00;98098.63;2606173;28;20040;-86
2023/06/09 05:01:33;;;;;;;11.77;9.35;;;;;;;16.59;100.00;98100.88;2608089;28;20037;-85
2023/06/09 05:02:51;;;;;;;11.80;9.38;;;;;;;16.68;100.00;98099.50;2608455;28;20068;-88
2023/06/09 05:04:07;;;;;;;12.65;9.45;;;;;;;16.82;100.00;98109.25;2608438;28;20048;-88
2023/06/09 05:05:23;;;;;;;12.32;9.15;;;;;;;16.77;100.00;98106.91;2608785;28;20048;-88
2023/06/09 05:06:39;;;;;;;11.13;9.57;;;;;;;16.99;100.00;98104.78;2607934;28;20139;-88
2023/06/09 05:07:55;;;;;;;13.65;9.82;;;;;;;16.98;100.00;98113.66;2608561;28;20057;-87
2023/06/09 05:09:11;;;;;;;12.73;9.68;;;;;;;17.10;100.00;98109.44;2604509;28;20045;-86
2023/06/09 05:10:26;;;;;;;11.23;9.27;;;;;;;17.11;100.00;98111.13;2605768;28;20423;-87
2023/06/09 05:11:42;;;;;;;12.70;9.55;;;;;;;17.17;100.00;98110.75;2610357;28;20052;-88
2023/06/09 05:12:58;;;;;;;11.57;9.13;;;;;;;17.28;100.00;98112.78;2613714;28;20048;-88
2023/06/09 05:14:13;;;;;;;12.18;9.30;;;;;;;17.24;100.00;98114.75;2615046;28;20052;-87
2023/06/09 05:15:30;;;;;;;10.55;8.90;;;;;;;17.29;100.00;98114.47;2609001;28;20045;-87
2023/06/09 05:16:53;;;;;;;12.32;9.45;;;;;;;17.39;100.00;98112.09;2614245;28;20112;-85
2023/06/09 05:18:10;;;;;;;11.90;8.73;;;;;;;17.20;100.00;98115.88;2607183;28;20049;-89
2023/06/09 05:19:27;;;;;;;10.27;8.65;;;;;;;17.31;100.00;98112.56;2599225;28;20049;-87
2023/06/09 05:20:43;;;;;;;10.90;8.70;;;;;;;17.45;100.00;98111.72;2608305;28;20049;-88
2023/06/09 05:21:58;;;;;;;14.10;9.13;;;;;;;17.45;100.00;98111.72;2608686;28;20234;-88
2023/06/09 05:23:14;;;;;;;9.60;8.48;;;;;;;17.57;100.00;98110.97;2608121;28;20084;-88
2023/06/09 05:24:29;;;;;;;10.18;8.43;;;;;;;17.72;100.00;98113.59;2608831;28;20049;-89
2023/06/09 05:25:45;;;;;;;11.32;9.02;;;;;;;17.47;100.00;98112.50;2607822;28;20398;-89
2023/06/09 05:27:01;;;;;;;12.38;8.65;;;;;;;17.36;100.00;98113.13;2608772;28;20087;-88
2023/06/09 05:28:17;;;;;;;10.20;8.77;;;;;;;17.28;100.00;98108.31;2608220;28;20052;-88
2023/06/09 05:29:32;;;;;;;10.25;8.80;;;;;;;17.44;100.00;98113.53;2608632;28;20485;-88
2023/06/09 05:30:48;;;;;;;10.98;9.10;;;;;;;17.56;100.00;98116.38;2608116;28;20772;-89
2023/06/09 05:32:04;;;;;;;11.30;8.85;;;;;;;17.58;100.00;98109.19;2608663;28;20055;-89
2023/06/09 05:33:20;;;;;;;14.73;8.80;;;;;;;17.51;100.00;98111.34;2608216;28;20092;-90
2023/06/09 05:34:36;;;;;;;11.48;9.10;;;;;;;17.50;100.00;98113.13;2609006;28;20912;-89
2023/06/09 05:35:51;;;;;;;11.38;8.95;;;;;;;17.71;100.00;98107.47;2608288;28;20041;-89
2023/06/09 05:37:07;;;;;;;9.68;8.55;;;;;;;17.61;100.00;98116.91;2608995;28;20057;-89
2023/06/09 05:38:25;;;;;;;9.98;8.15;;;;;;;17.76;100.00;98118.59;2607674;28;20132;-88
2023/06/09 05:39:41;;;;;;;11.27;8.50;;;;;;;17.77;100.00;98117.66;2608803;28;20123;-88
2023/06/09 05:40:56;;;;;;;9.73;8.73;;;;;;;17.84;100.00;98114.63;2609931;28;20055;-88
2023/06/09 05:42:13;;;;;;;11.98;8.90;;;;;;;17.86;100.00;98118.88;2610379;28;20091;-89
2023/06/09 05:43:29;;;;;;;11.85;8.75;;;;;;;17.87;100.00;98114.44;2610124;28;20071;-89
2023/06/09 05:44:45;;;;;;;10.93;8.32;;;;;;;18.04;100.00;98124.00;2610551;28;20059;-89
2023/06/09 05:46:00;;;;;;;10.88;8.80;;;;;;;17.99;100.00;98120.75;2610355;28;20059;-85
2023/06/09 05:47:16;;;;;;;9.82;8.63;;;;;;;17.95;100.00;98121.88;2611055;28;20048;-87
2023/06/09 05:48:31;;;;;;;15.30;9.07;;;;;;;17.93;100.00;98116.69;2610134;28;20052;-86
2023/06/09 05:49:47;;;;;;;12.82;8.57;;;;;;;17.93;100.00;98121.97;2609853;28;20473;-85
2023/06/09 05:51:02;;;;;;;11.73;8.18;;;;;;;17.95;100.00;98120.09;2609580;28;20044;-85
2023/06/09 05:52:18;;;;;;;10.25;8.60;;;;;;;18.00;100.00;98117.13;2609862;28;20053;-85
2023/06/09 05:53:34;;;;;;;9.02;8.02;;;;;;;17.98;100.00;98130.50;2610225;28;20049;-85
2023/06/09 05:54:50;;;;;;;9.10;7.65;;;;;;;17.83;100.00;98127.00;2609530;28;20489;-85
2023/06/09 05:56:05;;;;;;;9.75;8.18;;;;;;;17.88;100.00;98129.38;2609977;28;20053;-85